METAR Data
IDs: Format: Raw Decoded Include TAF

Data at: 2349 UTC 24 Apr 2019

PFCL 242256Z AUTO 36018G22KT 10SM SCT042 03/M04 A3000 RMK AO2 SLP154 T00331039 TSNO
PFCL 242156Z AUTO 03014G19KT 10SM FEW038 03/M05 A3002 RMK AO2 SLP158 T00331050 TSNO
PFCL 242056Z AUTO 01014G20KT 10SM CLR 02/M06 A3001 RMK AO2 SLP155 T00171061 53006 FZRANO TSNO
PFCL 241956Z AUTO 01017G23KT 10SM CLR 01/M07 A3000 RMK AO2 SLP153 T00111067 FZRANO TSNO
PFCL 241756Z AUTO 01017KT 10SM CLR M02/M07 A2999 RMK AO2 SLP150 T10171072 11017 21067 53007 FZRANO TSNO
PFCL 241656Z AUTO 02018G21KT 10SM CLR M03/M07 A2999 RMK AO2 SLP147 T10281072 FZRANO TSNO
PFCL 241556Z AUTO 02017KT 10SM CLR M04/M07 A2997 RMK AO2 SLP143 T10441072 FZRANO TSNO
PFCL 241456Z AUTO 02013KT 10SM CLR M06/M07 A2997 RMK AO2 SLP142 T10561072 50004 FZRANO TSNO
PFCL 241356Z AUTO 03009KT 10SM CLR M06/M07 A2997 RMK AO2 SLP144 T10611072 FZRANO TSNO
PFCL 241256Z AUTO 03010KT 10SM CLR M06/M07 A2997 RMK AO2 SLP141 T10611072 FZRANO TSNO
PFCL 241156Z AUTO 03008KT 10SM CLR M07/M08 A2996 RMK AO2 SLP139 T10671078 11011 21067 51011 FZRANO TSNO
PFCL 241056Z AUTO 03008KT 10SM CLR M06/M07 A2995 RMK AO2 SLP136 T10561067 FZRANO TSNO
PFCL 240956Z AUTO 04009KT 10SM BKN100 M04/M07 A2994 RMK AO2 SLP132 T10441067 FZRANO TSNO
PFCL 240856Z AUTO 04008KT 10SM CLR M04/M07 A2993 RMK AO2 SLP128 T10391067 400171050 51009 FZRANO TSNO
PFCL 240756Z AUTO 04008KT 10SM FEW120 M03/M07 A2992 RMK AO2 SLP126 T10281067 FZRANO TSNO
PFCL 240656Z AUTO 05008KT 10SM CLR M02/M07 A2991 RMK AO2 SLP123 T10171067 FZRANO TSNO
PFCL 240556Z AUTO 05006KT 10SM FEW032 M01/M06 A2990 RMK AO2 SLP118 60000 T10111061 10011 21011 53005 FZRANO TSNO
PFCL 240456Z AUTO 03005KT 10SM CLR 00/M06 A2989 RMK AO2 SLP114 T00001061 FZRANO TSNO
PFCL 240356Z AUTO 02006KT 10SM OVC045 M01/M06 A2989 RMK AO2 RAE0259UPB29E36SNB0259E29 SLP114 P0000 T10061056 FZRANO TSNO
PFCL 240256Z AUTO 05010KT 10SM -RA OVC036 00/M06 A2988 RMK AO2 RAB52 SLP113 P0000 60000 T00001056 53005 FZRANO TSNO
PFCL 240156Z AUTO 17011KT 10SM CLR 01/M08 A2987 RMK AO2 SLP108 T00061078 FZRANO TSNO
PFCL 240056Z AUTO 18010KT 10SM FEW037 01/M08 A2987 RMK AO2 SLP109 T00111078 FZRANO TSNO
PFCL 232356Z AUTO VRB04KT 10SM BKN031 00/M07 A2987 RMK AO2 SLP109 60000 T00001067 10017 21028 50005 FZRANO TSNO
PFCL 232256Z AUTO 35007KT 10SM FEW027 SCT035 BKN055 M01/M05 A2987 RMK AO2 UPB27E34B50E52SNB34E50 SLP109 P0000 T10111050 FZRANO TSNO
PFCL 232156Z AUTO VRB04KT 10SM BKN070 01/M10 A2986 RMK AO2 SLP106 T00111100 FZRANO TSNO
PFCL 232056Z AUTO 20007KT 180V240 10SM BKN075 M01/M07 A2986 RMK AO2 SLP104 T10061072 51010 FZRANO TSNO
PFCL 231956Z AUTO 00000KT 10SM BKN070 M01/M08 A2985 RMK AO2 SLP100 T10111078 FZRANO TSNO
PFCL 231856Z AUTO 20004KT 10SM OVC070 M02/M08 A2984 RMK AO2 SLP098 T10171083 FZRANO TSNO
PFCL 231756Z AUTO 00000KT 8SM OVC070 M03/M09 A2983 RMK AO2 SLP094 T10281089 11028 21050 51013 FZRANO TSNO
PFCL 231656Z AUTO VRB05KT 10SM OVC065 M03/M08 A2981 RMK AO2 SLP089 T10331083 FZRANO TSNO
PFCL 231556Z AUTO 30006KT 10SM BKN060 M04/M08 A2980 RMK AO2 SLP085 T10391083 FZRANO TSNO
PFCL 231456Z AUTO 29005KT 10SM SCT060 M04/M08 A2979 RMK AO2 SLP080 T10441078 51009 FZRANO TSNO
PFCL 231356Z AUTO 30005KT 10SM BKN060 M04/M08 A2978 RMK AO2 SLP078 T10441083 FZRANO TSNO
PFCL 231256Z AUTO 27006KT 10SM SCT050 M05/M08 A2977 RMK AO2 SLP074 T10501078 FZRANO TSNO